Flight Track Log - Related Links

Times and Time Zones

All times are in EST time to prevent confusion due to time zone crossing. See the SWA3734 flight status page for this flight to view local times or setup timezone preferences in your user account.

Time Position Orientation Groundspeed Altitude Reporting Facility
EST Latitude Longitude Course Direction KTS MPH feet Rate Location/Type
Sat 11:24:46 PM 37.7556 -122.2947 259° West 189 217 2,900  Level Oakland Center
Sat 11:25:46 PM 37.7442 -122.3708 176° South 201 231 6,100 3,400 Climbing Oakland Center
Sat 11:26:46 PM 37.6711 -122.3642 135° Southeast 160 184 9,700 3,250 Climbing Oakland Center
Sat 11:27:46 PM 37.6056 -122.2817 136° Southeast 220 253 12,600 3,250 Climbing Oakland Center
Sat 11:28:46 PM 37.5314 -122.1914 136° Southeast 294 338 16,200 2,950 Climbing Oakland Center
Sat 11:29:46 PM 37.4572 -122.1011 136° Southeast 342 394 18,500 2,500 Climbing Oakland Center
Sat 11:30:46 PM 37.3767 -122.0033 137° Southeast 380 437 21,200 2,800 Climbing Oakland Center
Sat 11:31:46 PM 37.2919 -121.9028 135° Southeast 406 467 24,100 3,000 Climbing Oakland Center
Sat 11:32:46 PM 37.1969 -121.7817 137° Southeast 432 497 27,200 2,650 Climbing Oakland Center
Sat 11:33:46 PM 37.1058 -121.6767 136° Southeast 444 511 29,400 1,950 Climbing Oakland Center
Sat 11:34:46 PM 37.0269 -121.5822 136° Southeast 444 511 31,100 2,050 Climbing Oakland Center
Sat 11:35:46 PM 36.9336 -121.4697 138° Southeast 450 518 33,500 2,300 Climbing Oakland Center
Sat 11:36:46 PM 36.8422 -121.3653 135° Southeast 450 518 35,700 2,200 Climbing Oakland Center
Sat 11:37:46 PM 36.7592 -121.2614 136° Southeast 439 505 37,900 1,550 Climbing Oakland Center
Sat 11:38:46 PM 36.6717 -121.1572 138° Southeast 439 505 38,800 550 Climbing Oakland Center
Sat 11:39:46 PM 36.5800 -121.0536 136° Southeast 439 505 39,000 100 Climbing Oakland Center
Sat 11:40:46 PM 36.4883 -120.9450 137° Southeast 444 511 39,000  Level Oakland Center
Sat 11:41:46 PM 36.3964 -120.8394 137° Southeast 449 517 39,000  Level Oakland Center
Sat 11:42:46 PM 36.3025 -120.7314 137° Southeast 449 517 39,000  Level Oakland Center
Sat 11:43:46 PM 36.2103 -120.6236 136° Southeast 449 517 39,000  Level Oakland Center
Sat 11:45:07 PM 36.0861 -120.4772 137° Southeast 460 529 39,000  Level Los Angeles Center
Sat 11:46:07 PM 35.9939 -120.3719 137° Southeast 460 529 39,000  Level Los Angeles Center
Sat 11:47:07 PM 35.8994 -120.2644 137° Southeast 460 529 39,000  Level Los Angeles Center
Sat 11:48:07 PM 35.8092 -120.1600 138° Southeast 455 524 39,000  Level Los Angeles Center
Sat 11:49:07 PM 35.7144 -120.0556 138° Southeast 450 518 39,000  Level Los Angeles Center
Sat 11:50:07 PM 35.6117 -119.9433 146° Southeast 455 524 39,000  Level Los Angeles Center
Sat 11:51:07 PM 35.5058 -119.8542 145° Southeast 450 518 39,000  Level Los Angeles Center
Sat 11:52:07 PM 35.4042 -119.7678 145° Southeast 450 518 39,000  Level Los Angeles Center
Sat 11:53:07 PM 35.3003 -119.6792 146° Southeast 455 524 39,000 -850 Level Los Angeles Center
Sat 11:54:07 PM 35.1964 -119.5933 145° Southeast 455 524 37,300 -2,200 Descending Los Angeles Center
Sat 11:55:07 PM 35.0967 -119.5081 144° Southeast 448 516 34,600 -2,850 Descending Los Angeles Center
Sat 11:56:07 PM 34.9967 -119.4200 146° Southeast 448 516 31,600 -2,700 Descending Los Angeles Center
Sat 11:57:07 PM 34.8967 -119.3378 146° Southeast 442 509 29,200 -2,400 Descending Los Angeles Center
Sat 11:58:07 PM 34.7944 -119.2528 145° Southeast 442 509 26,800 -2,300 Descending Los Angeles Center
Sat 11:59:07 PM 34.6986 -119.1708 148° Southeast 436 502 24,600 -2,250 Descending Los Angeles Center
Sun 12:00:07 AM 34.6022 -119.0967 145° Southeast 425 489 22,300 -2,100 Descending Los Angeles Center
Sun 12:01:07 AM 34.5183 -119.0256 144° Southeast 415 478 20,400 -2,050 Descending Los Angeles Center
Sun 12:02:07 AM 34.4306 -118.9494 147° Southeast 404 465 18,200 -2,150 Descending Los Angeles Center
Sun 12:03:07 AM 34.3422 -118.8811 163° South 393 452 16,100 -1,700 Descending Los Angeles Center
Sun 12:04:07 AM 34.2556 -118.8481 163° South 373 429 14,800 -1,200 Descending Los Angeles Center
Sun 12:05:07 AM 34.1725 -118.8178 164° South 340 391 13,700 -850 Descending Los Angeles Center
Sun 12:06:07 AM 34.0919 -118.7900 140° Southeast 316 364 13,100 -900 Descending Los Angeles Center
Sun 12:07:07 AM 34.0367 -118.7333 98° East 293 337 11,900 -1,250 Descending Los Angeles Center
Sun 12:08:07 AM 34.0242 -118.6300 96° East 250 288 10,600 -1,400 Descending Los Angeles Center
Sun 12:09:07 AM 34.0158 -118.5347 93° East 257 296 9,100 -1,500 Descending Los Angeles Center
Sun 12:10:07 AM 34.0114 -118.4442 85° East 269 310 7,600 -1,385 Descending Los Angeles Center
Sun 12:10:51 AM 34.0167 -118.3667 73° East 267 307 6,700 -1,154 Descending Southern California TRACON
Sun 12:11:51 AM 34.0333 -118.3000 90° East 250 288 5,600 -800 Descending Southern California TRACON
Sun 12:12:51 AM 34.0333 -118.2167 157° South 222 255 5,100 -744 Descending Southern California TRACON
Sun 12:13:52 AM 34.0000 -118.2000 239° Southwest 203 234 4,100 -1,289 Descending Southern California TRACON
Sun 12:14:52 AM 33.9667 -118.2667 270° West 204 235 2,500 -1,400 Descending Southern California TRACON
Sun 12:15:52 AM 33.9667 -118.3333 248° West 184 212 1,300 -1,000 Descending Southern California TRACON
Sun 12:16:52 AM 33.9500 -118.3833 264° West 136 157 500 -533 Descending Southern California TRACON
Sun 12:18:07 AM 33.9444 -118.4450 264° West 154 177 100 -320 Descending Los Angeles Center

Login

Don't have an account? Register now (free) for customized features, flight alerts, and more!